createdAt,value
2022-10-22T00:01:44.253Z,13.30
2022-10-22T00:04:13.809Z,13.32
2022-10-22T00:06:45.091Z,13.35
2022-10-22T00:09:14.877Z,13.38
2022-10-22T00:11:45.466Z,13.42
2022-10-22T00:14:17.640Z,13.47
2022-10-22T00:16:47.243Z,13.52
2022-10-22T00:19:17.023Z,13.55
2022-10-22T00:21:46.600Z,13.61
2022-10-22T00:24:16.457Z,13.64
2022-10-22T00:26:46.074Z,13.68
2022-10-22T00:29:20.118Z,13.74
2022-10-22T00:31:50.083Z,13.78
2022-10-22T00:34:20.143Z,13.80
2022-10-22T00:36:50.182Z,13.83
2022-10-22T00:39:21.696Z,13.83
2022-10-22T00:41:52.065Z,13.84
2022-10-22T00:44:51.654Z,13.84
2022-10-22T00:47:26.689Z,13.83
2022-10-22T00:49:56.852Z,13.81
2022-10-22T00:52:26.466Z,13.80
2022-10-22T00:54:56.052Z,13.78
2022-10-22T00:57:25.764Z,13.79
2022-10-22T00:59:55.395Z,13.81
2022-10-22T01:02:27.769Z,13.84
2022-10-22T01:04:57.832Z,13.84
2022-10-22T01:07:27.712Z,13.87
2022-10-22T01:10:04.517Z,13.91
2022-10-22T01:12:43.256Z,13.93
2022-10-22T01:15:20.929Z,13.94
2022-10-22T01:17:58.866Z,13.90
2022-10-22T01:20:48.992Z,13.87
2022-10-22T01:23:54.228Z,13.82
2022-10-22T01:26:29.378Z,13.77
2022-10-22T01:29:06.787Z,13.73
2022-10-22T01:31:41.125Z,13.69
2022-10-22T01:34:11.294Z,13.66
2022-10-22T01:36:41.868Z,13.64
2022-10-22T01:39:11.667Z,13.66
2022-10-22T01:41:42.775Z,13.66
2022-10-22T01:44:31.173Z,13.65
2022-10-22T01:47:12.825Z,13.65
2022-10-22T01:49:58.056Z,13.64
2022-10-22T01:52:34.626Z,13.65
2022-10-22T01:55:12.975Z,13.66
2022-10-22T01:57:47.349Z,13.65
2022-10-22T02:00:20.590Z,13.65
2022-10-22T02:02:54.277Z,13.66
2022-10-22T02:05:26.049Z,13.68
2022-10-22T02:07:58.476Z,13.70
2022-10-22T02:10:28.328Z,13.71
2022-10-22T02:12:58.960Z,13.69
2022-10-22T02:15:32.688Z,13.67
2022-10-22T02:18:02.846Z,13.64
2022-10-22T02:20:34.938Z,13.63
2022-10-22T02:23:04.789Z,13.60
2022-10-22T02:25:37.764Z,13.58
2022-10-22T02:28:14.677Z,13.56
2022-10-22T02:30:49.625Z,13.52
2022-10-22T02:33:22.422Z,13.50
2022-10-22T02:35:52.665Z,13.51
2022-10-22T02:38:22.598Z,13.51
2022-10-22T02:40:52.289Z,13.51
2022-10-22T02:43:22.215Z,13.51
2022-10-22T02:45:54.723Z,13.49
2022-10-22T02:48:24.483Z,13.44
2022-10-22T02:50:54.034Z,13.40
2022-10-22T02:53:23.624Z,13.34
2022-10-22T02:55:53.163Z,13.29
2022-10-22T02:58:22.746Z,13.25
2022-10-22T03:00:54.974Z,13.21
2022-10-22T03:03:24.817Z,13.16
2022-10-22T03:05:54.367Z,13.11
2022-10-22T03:08:23.931Z,13.06
2022-10-22T03:10:53.485Z,13.01
2022-10-22T03:13:23.540Z,12.97
2022-10-22T03:15:55.906Z,12.94
2022-10-22T03:18:25.511Z,12.90
2022-10-22T03:21:04.042Z,12.86
2022-10-22T03:23:34.635Z,12.81
2022-10-22T03:26:04.240Z,12.76
2022-10-22T03:28:33.823Z,12.71
2022-10-22T03:31:06.000Z,12.67
2022-10-22T03:33:35.601Z,12.63
2022-10-22T03:36:05.282Z,12.62
2022-10-22T03:38:34.929Z,12.61
2022-10-22T03:41:04.529Z,12.65
2022-10-22T03:43:34.117Z,12.66
2022-10-22T03:46:06.494Z,12.66
2022-10-22T03:48:36.069Z,12.67
2022-10-22T03:51:05.678Z,12.68
2022-10-22T03:53:35.399Z,12.70
2022-10-22T03:56:05.192Z,12.73
2022-10-22T03:58:34.717Z,12.69
2022-10-22T04:01:10.667Z,12.68
2022-10-22T04:03:41.877Z,12.67
2022-10-22T04:06:12.774Z,12.67
2022-10-22T04:08:43.344Z,12.68
2022-10-22T04:11:13.533Z,12.69
2022-10-22T04:13:43.161Z,12.68
2022-10-22T04:16:16.901Z,12.72
2022-10-22T04:18:47.255Z,12.73
2022-10-22T04:21:18.598Z,12.75
2022-10-22T04:23:49.054Z,12.77
2022-10-22T04:26:19.743Z,12.79
2022-10-22T04:28:49.941Z,12.79
2022-10-22T04:31:23.719Z,12.80
2022-10-22T04:33:55.806Z,12.83
2022-10-22T04:36:26.261Z,12.86
2022-10-22T04:38:57.411Z,12.88
2022-10-22T04:41:29.696Z,12.89
2022-10-22T04:44:00.196Z,12.89
2022-10-22T04:46:34.799Z,12.84
2022-10-22T04:49:05.102Z,12.77
2022-10-22T04:51:35.487Z,12.69
2022-10-22T04:54:05.053Z,12.63
2022-10-22T04:56:35.210Z,12.58
2022-10-22T04:59:07.216Z,12.54
2022-10-22T05:01:43.000Z,12.48
2022-10-22T05:04:14.740Z,12.45
2022-10-22T05:06:44.939Z,12.42
2022-10-22T05:09:16.948Z,12.40
2022-10-22T05:11:48.791Z,12.43
2022-10-22T05:14:20.193Z,12.43
2022-10-22T05:16:52.881Z,12.40
2022-10-22T05:19:24.385Z,12.41
2022-10-22T05:21:54.296Z,12.38
2022-10-22T05:24:24.673Z,12.37
2022-10-22T05:26:54.774Z,12.35
2022-10-22T05:29:24.741Z,12.33
2022-10-22T05:31:57.173Z,12.32
2022-10-22T05:34:26.770Z,12.31
2022-10-22T05:36:56.359Z,12.30
2022-10-22T05:39:25.884Z,12.26
2022-10-22T05:41:55.473Z,12.23
2022-10-22T05:44:25.034Z,12.21
2022-10-22T05:46:57.223Z,12.19
2022-10-22T05:49:26.798Z,12.16
2022-10-22T05:51:56.364Z,12.16
2022-10-22T05:54:25.948Z,12.16
2022-10-22T05:56:55.690Z,12.15
2022-10-22T05:59:25.220Z,12.15
2022-10-22T06:01:57.409Z,12.14
2022-10-22T06:04:27.060Z,12.13
2022-10-22T06:06:56.919Z,12.11
2022-10-22T06:09:29.215Z,12.10
2022-10-22T06:11:59.335Z,12.07
2022-10-22T06:14:29.602Z,12.05
2022-10-22T06:17:02.404Z,12.04
2022-10-22T06:19:32.543Z,12.07
2022-10-22T06:22:02.083Z,12.17
2022-10-22T06:24:31.641Z,12.29
2022-10-22T06:27:01.244Z,12.41
2022-10-22T06:29:30.781Z,12.53
2022-10-22T06:32:02.950Z,12.63
2022-10-22T06:34:32.659Z,12.77
2022-10-22T06:37:02.277Z,12.99
2022-10-22T06:39:32.020Z,13.32
2022-10-22T06:42:01.602Z,13.68
2022-10-22T06:44:36.934Z,14.01
2022-10-22T06:47:09.098Z,14.26
2022-10-22T06:49:38.685Z,14.54
2022-10-22T06:52:08.456Z,14.82
2022-10-22T06:54:38.251Z,15.11
2022-10-22T06:57:07.934Z,15.45
2022-10-22T06:59:38.144Z,15.60
2022-10-22T07:02:11.700Z,15.49
2022-10-22T07:04:43.734Z,15.27
2022-10-22T07:07:14.973Z,15.08
2022-10-22T07:09:45.531Z,14.86
2022-10-22T07:12:15.080Z,14.68
2022-10-22T07:14:44.880Z,14.59
2022-10-22T07:17:17.084Z,14.69
2022-10-22T07:19:49.694Z,15.09
2022-10-22T07:22:20.968Z,15.80
2022-10-22T07:24:50.560Z,16.61
2022-10-22T07:27:20.122Z,17.47
2022-10-22T07:29:49.862Z,18.30
2022-10-22T07:32:23.872Z,19.16
2022-10-22T07:34:53.591Z,19.88
2022-10-22T07:37:23.607Z,20.41
2022-10-22T07:39:53.312Z,20.85
2022-10-22T07:42:22.908Z,21.28
2022-10-22T07:44:52.521Z,21.79
2022-10-22T07:47:24.697Z,22.12
2022-10-22T07:49:54.296Z,22.52
2022-10-22T07:52:23.904Z,22.90
2022-10-22T07:54:53.506Z,22.94
2022-10-22T07:57:23.126Z,22.35
2022-10-22T07:59:53.260Z,21.64
2022-10-22T08:02:25.485Z,21.02
2022-10-22T08:04:57.075Z,20.42
2022-10-22T08:10:16.569Z,19.24
2022-10-22T08:12:46.164Z,18.76
2022-10-22T08:15:15.790Z,18.43
2022-10-22T08:17:47.945Z,18.18
2022-10-22T08:20:17.679Z,17.95
2022-10-22T08:22:47.443Z,17.73
2022-10-22T08:25:18.262Z,17.51
2022-10-22T08:27:48.632Z,17.32
2022-10-22T08:30:18.785Z,17.20
2022-10-22T08:32:54.001Z,17.11
2022-10-22T08:35:23.925Z,17.01
2022-10-22T08:37:53.670Z,16.89
2022-10-22T08:40:26.769Z,16.82
2022-10-22T08:43:32.035Z,16.68
2022-10-22T08:46:12.980Z,16.59
2022-10-22T08:48:49.821Z,16.57
2022-10-22T08:51:21.087Z,16.54
2022-10-22T08:54:11.074Z,16.51
2022-10-22T08:56:41.170Z,16.47
2022-10-22T08:59:15.516Z,16.43
2022-10-22T09:01:48.773Z,16.44
2022-10-22T09:04:25.531Z,16.47
2022-10-22T09:06:56.448Z,16.53
2022-10-22T09:09:27.772Z,16.58
2022-10-22T09:12:00.261Z,16.61
2022-10-22T09:14:29.968Z,16.71
2022-10-22T09:17:13.490Z,16.83
2022-10-22T09:19:51.990Z,16.99
2022-10-22T09:22:28.982Z,17.12
2022-10-22T09:25:01.821Z,17.20
2022-10-22T09:27:33.251Z,17.25
2022-10-22T09:30:03.671Z,17.30
2022-10-22T09:32:35.859Z,17.38
2022-10-22T09:35:13.423Z,17.46
2022-10-22T09:37:51.768Z,17.50
2022-10-22T09:40:21.650Z,17.51
2022-10-22T09:42:51.660Z,17.50
2022-10-22T09:45:23.695Z,17.47
2022-10-22T09:48:02.208Z,17.42
2022-10-22T09:50:42.582Z,17.37
2022-10-22T09:53:23.531Z,17.33
2022-10-22T09:58:46.530Z,17.30
2022-10-22T10:01:21.729Z,17.33
2022-10-22T10:03:52.703Z,17.37
2022-10-22T10:06:25.901Z,17.40
2022-10-22T10:08:55.479Z,17.43
2022-10-22T10:11:31.806Z,17.45
2022-10-22T10:14:11.057Z,17.43
2022-10-22T10:16:46.812Z,17.43
2022-10-22T10:19:29.499Z,17.47
2022-10-22T10:22:08.634Z,17.47
2022-10-22T10:24:50.902Z,17.43
2022-10-22T10:27:27.946Z,17.46
2022-10-22T10:30:04.677Z,17.51
2022-10-22T10:32:46.983Z,17.51
2022-10-22T10:35:23.344Z,17.46
2022-10-22T10:38:09.879Z,17.36
2022-10-22T10:40:47.294Z,17.29
2022-10-22T10:43:21.653Z,17.27
2022-10-22T10:45:59.557Z,17.25
2022-10-22T10:48:48.695Z,17.23
2022-10-22T10:51:32.722Z,17.22
2022-10-22T10:54:15.296Z,17.23
2022-10-22T10:56:48.720Z,17.25
2022-10-22T10:59:22.232Z,17.27
2022-10-22T11:02:04.937Z,17.30
2022-10-22T11:05:10.201Z,17.29
2022-10-22T11:07:43.337Z,17.26
2022-10-22T11:10:22.657Z,17.24
2022-10-22T11:12:53.675Z,17.23
2022-10-22T11:15:29.669Z,17.20
2022-10-22T11:18:07.441Z,17.15
2022-10-22T11:20:46.268Z,17.06
2022-10-22T11:23:21.220Z,17.01
2022-10-22T11:25:53.822Z,16.93
2022-10-22T11:28:27.858Z,16.89
2022-10-22T11:31:02.823Z,16.86
2022-10-22T11:33:38.693Z,16.83
2022-10-22T11:36:09.751Z,16.84
2022-10-22T11:38:39.477Z,16.82
2022-10-22T11:41:14.853Z,16.79
2022-10-22T11:44:01.548Z,16.78
2022-10-22T11:46:43.569Z,16.73
2022-10-22T11:49:26.820Z,16.74
2022-10-22T11:52:25.464Z,16.75
2022-10-22T11:54:58.020Z,16.73
2022-10-22T11:57:40.240Z,16.75
2022-10-22T12:00:13.901Z,16.77
2022-10-22T12:02:46.542Z,16.79
2022-10-22T12:05:38.294Z,16.85
2022-10-22T12:08:24.004Z,16.94
2022-10-22T12:11:09.581Z,17.03
2022-10-22T12:14:04.689Z,17.14
2022-10-22T12:16:57.349Z,17.23
2022-10-22T12:19:30.238Z,17.38
2022-10-22T12:22:02.016Z,17.49
2022-10-22T12:24:35.491Z,17.64
2022-10-22T12:27:08.185Z,17.76
2022-10-22T12:29:40.834Z,17.86
2022-10-22T12:32:10.413Z,17.92
2022-10-22T12:37:38.843Z,18.04
2022-10-22T12:40:19.707Z,18.12
2022-10-22T12:42:56.670Z,18.18
2022-10-22T12:45:30.796Z,18.22
2022-10-22T12:48:01.982Z,18.28
2022-10-22T12:50:38.189Z,18.34
2022-10-22T12:53:08.759Z,18.41
2022-10-22T12:55:39.338Z,18.44
2022-10-22T12:58:09.193Z,18.49
2022-10-22T13:00:42.021Z,18.51
2022-10-22T13:03:20.759Z,18.52
2022-10-22T13:05:51.242Z,18.55
2022-10-22T13:10:56.225Z,18.57
2022-10-22T13:13:33.932Z,18.58
2022-10-22T13:16:20.610Z,18.58
2022-10-22T13:18:51.257Z,18.57
2022-10-22T13:21:32.354Z,18.55
2022-10-22T13:24:03.438Z,18.58
2022-10-22T13:26:35.390Z,18.58
2022-10-22T13:29:06.065Z,18.56
2022-10-22T13:31:38.270Z,18.55
2022-10-22T13:34:11.852Z,18.55
2022-10-22T13:36:43.601Z,18.53
2022-10-22T13:39:17.516Z,18.50
2022-10-22T13:41:46.919Z,18.44
2022-10-22T13:44:16.482Z,18.35
2022-10-22T13:46:49.364Z,18.29
2022-10-22T13:49:22.545Z,18.21
2022-10-22T13:51:53.609Z,18.13
2022-10-22T13:54:25.704Z,18.04
2022-10-22T13:56:55.560Z,17.97
2022-10-22T13:59:25.123Z,17.96
2022-10-22T14:01:57.329Z,18.04
2022-10-22T14:04:26.937Z,18.15
2022-10-22T14:06:58.757Z,18.22
2022-10-22T14:09:31.224Z,18.26
2022-10-22T14:12:00.843Z,18.31
2022-10-22T14:14:30.404Z,18.37
2022-10-22T14:17:02.578Z,18.42
2022-10-22T14:19:32.994Z,18.47
2022-10-22T14:22:02.604Z,18.47
2022-10-22T14:24:32.160Z,18.46
2022-10-22T14:27:01.752Z,18.41
2022-10-22T14:29:31.300Z,18.36
2022-10-22T14:32:03.478Z,18.32
2022-10-22T14:34:33.052Z,18.32
2022-10-22T14:37:02.662Z,18.35
2022-10-22T14:39:32.192Z,18.36
2022-10-22T14:42:01.780Z,18.35
2022-10-22T14:44:31.378Z,18.31
2022-10-22T14:47:03.635Z,18.25
2022-10-22T14:49:33.217Z,18.20
2022-10-22T14:52:02.838Z,18.14
2022-10-22T14:54:33.224Z,18.06
2022-10-22T14:57:02.805Z,18.00
2022-10-22T14:59:32.787Z,17.95
2022-10-22T15:02:04.994Z,17.92
2022-10-22T15:04:34.555Z,17.90
2022-10-22T15:07:04.217Z,17.89
2022-10-22T15:09:34.129Z,17.83
2022-10-22T15:12:03.797Z,17.71
2022-10-22T15:14:33.519Z,17.53
2022-10-22T15:17:05.718Z,17.36
2022-10-22T15:19:35.447Z,17.22
2022-10-22T15:22:05.876Z,17.07
2022-10-22T15:24:35.524Z,16.95
2022-10-22T15:27:05.542Z,16.84
2022-10-22T15:29:35.591Z,16.75
2022-10-22T15:32:10.401Z,16.65
2022-10-22T15:34:41.705Z,16.56
2022-10-22T15:37:12.647Z,16.45
2022-10-22T15:39:43.013Z,16.35
2022-10-22T15:42:14.505Z,16.24
2022-10-22T15:44:44.531Z,16.14
2022-10-22T15:47:16.822Z,16.02
2022-10-22T15:49:46.401Z,15.90
2022-10-22T15:52:16.156Z,15.79
2022-10-22T15:54:45.737Z,15.69
2022-10-22T15:57:15.366Z,15.62
2022-10-22T15:59:44.953Z,15.63
2022-10-22T16:02:17.133Z,15.68
2022-10-22T16:04:46.700Z,15.72
2022-10-22T16:07:17.319Z,15.76
2022-10-22T16:09:48.421Z,15.78
2022-10-22T16:12:18.574Z,15.81
2022-10-22T16:14:48.166Z,15.83
2022-10-22T16:17:20.654Z,15.82
2022-10-22T16:19:50.597Z,15.81
2022-10-22T16:22:20.284Z,15.76
2022-10-22T16:24:50.101Z,15.66
2022-10-22T16:27:19.680Z,15.54
2022-10-22T16:29:49.238Z,15.43
2022-10-22T16:32:21.407Z,15.33
2022-10-22T16:34:50.941Z,15.23
2022-10-22T16:37:20.500Z,15.13
2022-10-22T16:39:50.254Z,15.03
2022-10-22T16:42:19.909Z,14.94
2022-10-22T16:44:49.457Z,14.85
2022-10-22T16:47:21.634Z,14.78
2022-10-22T16:49:51.165Z,14.71
2022-10-22T16:52:20.754Z,14.67
2022-10-22T16:54:50.360Z,14.62
2022-10-22T16:57:19.974Z,14.58
2022-10-22T16:59:50.407Z,14.55
2022-10-22T17:02:22.605Z,14.54
2022-10-22T17:04:52.149Z,14.56
2022-10-22T17:07:21.760Z,14.60
2022-10-22T17:09:51.320Z,14.59
2022-10-22T17:12:20.907Z,14.53
2022-10-22T17:14:51.156Z,14.49
2022-10-22T17:17:23.830Z,14.45
2022-10-22T17:19:53.535Z,14.42
2022-10-22T17:22:23.176Z,14.35
2022-10-22T17:25:09.887Z,14.29
2022-10-22T17:27:39.752Z,14.21
2022-10-22T17:30:13.348Z,14.18
2022-10-22T17:32:45.990Z,14.18
2022-10-22T17:35:17.872Z,14.16
2022-10-22T17:37:47.467Z,14.11
2022-10-22T17:40:17.279Z,14.06
2022-10-22T17:42:49.276Z,14.00
2022-10-22T17:45:19.049Z,13.96
2022-10-22T17:47:52.032Z,13.92
2022-10-22T17:50:21.690Z,13.93
2022-10-22T17:52:51.273Z,13.95
2022-10-22T17:55:20.886Z,13.95
2022-10-22T17:57:50.463Z,13.96
2022-10-22T18:00:21.376Z,13.96
2022-10-22T18:02:53.547Z,13.96
2022-10-22T18:05:23.085Z,13.95
2022-10-22T18:07:53.101Z,13.95
2022-10-22T18:10:22.640Z,13.93
2022-10-22T18:12:52.258Z,13.90
2022-10-22T18:15:21.795Z,13.88
2022-10-22T18:17:54.008Z,13.83
2022-10-22T18:20:23.548Z,13.82
2022-10-22T18:22:53.130Z,13.81
2022-10-22T18:25:22.797Z,13.81
2022-10-22T18:27:52.401Z,13.82
2022-10-22T18:30:22.067Z,13.83
2022-10-22T18:32:54.509Z,13.76
2022-10-22T18:35:24.449Z,13.65
2022-10-22T18:37:54.038Z,13.55
2022-10-22T18:40:23.642Z,13.45
2022-10-22T18:42:53.273Z,13.37
2022-10-22T18:45:22.858Z,13.33
2022-10-22T18:47:55.046Z,13.32
2022-10-22T18:50:24.691Z,13.34
2022-10-22T18:52:54.353Z,13.40
2022-10-22T18:55:23.898Z,13.43
2022-10-22T18:57:53.464Z,13.43
2022-10-22T19:00:23.389Z,13.41
2022-10-22T19:02:55.637Z,13.37
2022-10-22T19:05:25.347Z,13.35
2022-10-22T19:07:55.019Z,13.32
2022-10-22T19:10:24.682Z,13.31
2022-10-22T19:12:54.309Z,13.30
2022-10-22T19:15:23.902Z,13.28
2022-10-22T19:17:56.105Z,13.28
2022-10-22T19:20:25.679Z,13.26
2022-10-22T19:22:56.681Z,13.25
2022-10-22T19:25:26.890Z,13.20
2022-10-22T19:27:56.509Z,13.13
2022-10-22T19:30:26.081Z,13.08
2022-10-22T19:32:58.273Z,12.99
2022-10-22T19:35:27.839Z,12.96
2022-10-22T19:37:57.420Z,12.93
2022-10-22T19:40:28.442Z,12.90
2022-10-22T19:42:58.069Z,12.88
2022-10-22T19:45:27.662Z,12.83
2022-10-22T19:47:59.787Z,12.81
2022-10-22T19:50:29.422Z,12.80
2022-10-22T19:52:59.695Z,12.79
2022-10-22T19:55:29.453Z,12.82
2022-10-22T19:57:59.041Z,12.83
2022-10-22T20:00:29.433Z,12.82
2022-10-22T20:03:01.674Z,12.82
2022-10-22T20:05:31.284Z,12.81
2022-10-22T20:08:00.937Z,12.84
2022-10-22T20:10:30.501Z,12.90
2022-10-22T20:13:00.090Z,12.97
2022-10-22T20:15:29.741Z,13.08
2022-10-22T20:18:02.148Z,13.19
2022-10-22T20:20:31.737Z,13.29
2022-10-22T20:23:01.412Z,13.37
2022-10-22T20:25:31.133Z,13.43
2022-10-22T20:28:00.704Z,13.44
2022-10-22T20:30:30.938Z,13.42
2022-10-22T20:33:03.161Z,13.40
2022-10-22T20:35:32.712Z,13.38
2022-10-22T20:38:02.275Z,13.36
2022-10-22T20:40:32.303Z,13.34
2022-10-22T20:43:02.459Z,13.34
2022-10-22T20:45:32.265Z,13.31
2022-10-22T20:48:04.685Z,13.29
2022-10-22T20:50:34.597Z,13.31
2022-10-22T20:53:04.193Z,13.33
2022-10-22T20:55:33.793Z,13.35
2022-10-22T20:58:03.361Z,13.37
2022-10-22T21:00:36.016Z,13.39
2022-10-22T21:03:08.377Z,13.39
2022-10-22T21:05:37.971Z,13.40
2022-10-22T21:08:07.738Z,13.40
2022-10-22T21:10:37.309Z,13.39
2022-10-22T21:13:06.921Z,13.38
2022-10-22T21:15:36.519Z,13.38
2022-10-22T21:18:08.815Z,13.35
2022-10-22T21:20:38.519Z,13.35
2022-10-22T21:23:08.076Z,13.36
2022-10-22T21:25:40.845Z,13.35
2022-10-22T21:28:12.896Z,13.35
2022-10-22T21:30:47.773Z,13.34
2022-10-22T21:33:19.961Z,13.32
2022-10-22T21:35:53.985Z,13.32
2022-10-22T21:38:24.144Z,13.29
2022-10-22T21:40:54.036Z,13.26
2022-10-22T21:43:23.603Z,13.25
2022-10-22T21:45:53.182Z,13.23
2022-10-22T21:48:25.323Z,13.21
2022-10-22T21:50:54.902Z,13.19
2022-10-22T21:53:24.479Z,13.16
2022-10-22T21:55:54.089Z,13.14
2022-10-22T21:58:23.673Z,13.15
2022-10-22T22:00:57.805Z,13.14
2022-10-22T22:03:30.334Z,13.12
2022-10-22T22:06:01.374Z,13.10
2022-10-22T22:08:31.429Z,13.10
2022-10-22T22:11:04.760Z,13.08
2022-10-22T22:13:34.499Z,13.07
2022-10-22T22:16:04.537Z,13.08
2022-10-22T22:18:37.452Z,13.04
2022-10-22T22:21:08.534Z,13.00
2022-10-22T22:23:39.841Z,12.98
2022-10-22T22:26:10.142Z,12.97
2022-10-22T22:28:40.583Z,12.94
2022-10-22T22:31:22.099Z,12.91
2022-10-22T22:33:54.365Z,12.88
2022-10-22T22:36:23.939Z,12.83
2022-10-22T22:38:56.808Z,12.83
2022-10-22T22:41:26.688Z,12.83
2022-10-22T22:43:56.276Z,12.83
2022-10-22T22:46:25.925Z,12.83
2022-10-22T22:48:58.207Z,12.83
2022-10-22T22:51:27.983Z,12.83
2022-10-22T22:53:58.094Z,12.82
2022-10-22T22:56:29.758Z,12.82
2022-10-22T22:58:59.958Z,12.83
2022-10-22T23:01:31.347Z,12.82
2022-10-22T23:04:05.883Z,12.82
2022-10-22T23:06:37.818Z,12.82
2022-10-22T23:09:08.190Z,12.87
2022-10-22T23:11:38.067Z,12.91
2022-10-22T23:14:09.360Z,12.93
2022-10-22T23:16:42.435Z,12.97
2022-10-22T23:19:14.866Z,12.99
2022-10-22T23:21:47.757Z,13.03
2022-10-22T23:24:18.704Z,13.07
2022-10-22T23:26:49.898Z,13.11
2022-10-22T23:29:21.172Z,13.14
2022-10-22T23:31:52.571Z,13.15
2022-10-22T23:34:25.952Z,13.16
2022-10-22T23:36:56.851Z,13.15
2022-10-22T23:39:28.311Z,13.13
2022-10-22T23:41:58.342Z,13.11
2022-10-22T23:44:28.368Z,13.03
2022-10-22T23:46:58.050Z,12.98
2022-10-22T23:49:30.281Z,12.95
2022-10-22T23:51:59.904Z,12.90
2022-10-22T23:54:29.465Z,12.88
2022-10-22T23:56:59.053Z,12.85
2022-10-22T23:59:28.594Z,12.83
